createdAt,value
2023-01-13T00:00:40.221Z,23.14
2023-01-13T00:03:06.805Z,23.20
2023-01-13T00:05:33.315Z,23.11
2023-01-13T00:07:59.735Z,23.14
2023-01-13T00:10:26.136Z,23.05
2023-01-13T00:12:53.543Z,23.15
2023-01-13T00:15:19.958Z,22.95
2023-01-13T00:17:46.454Z,22.94
2023-01-13T00:20:12.855Z,22.91
2023-01-13T00:22:39.360Z,22.97
2023-01-13T00:25:06.678Z,22.93
2023-01-13T00:27:33.191Z,22.96
2023-01-13T00:29:59.752Z,22.90
2023-01-13T00:32:26.210Z,22.93
2023-01-13T00:34:52.979Z,22.75
2023-01-13T00:37:19.433Z,22.69
2023-01-13T00:39:45.952Z,22.65
2023-01-13T00:42:30.760Z,22.65
2023-01-13T00:44:57.153Z,22.64
2023-01-13T00:47:23.588Z,22.70
2023-01-13T00:49:52.768Z,22.86
2023-01-13T00:52:19.187Z,22.76
2023-01-13T00:54:45.701Z,22.62
2023-01-13T00:57:12.131Z,22.66
2023-01-13T00:59:38.518Z,22.72
2023-01-13T01:02:05.073Z,22.74
2023-01-13T01:04:31.740Z,22.65
2023-01-13T01:06:58.167Z,22.61
2023-01-13T01:09:26.590Z,22.61
2023-01-13T01:11:52.963Z,22.62
2023-01-13T01:14:19.344Z,22.46
2023-01-13T01:16:45.766Z,22.35
2023-01-13T01:19:12.154Z,22.38
2023-01-13T01:21:39.779Z,22.39
2023-01-13T01:24:06.342Z,22.40
2023-01-13T01:26:32.824Z,22.39
2023-01-13T01:28:59.369Z,22.43
2023-01-13T01:31:26.434Z,22.40
2023-01-13T01:33:53.175Z,22.40
2023-01-13T01:36:19.880Z,22.37
2023-01-13T01:38:46.287Z,22.25
2023-01-13T01:41:14.098Z,22.32
2023-01-13T01:44:01.618Z,22.31
2023-01-13T01:46:37.887Z,22.24
2023-01-13T01:49:09.243Z,22.23
2023-01-13T01:51:37.178Z,22.11
2023-01-13T01:54:04.235Z,22.09
2023-01-13T01:56:30.742Z,21.98
2023-01-13T01:58:57.124Z,21.94
2023-01-13T02:01:23.682Z,21.89
2023-01-13T02:03:52.649Z,21.82
2023-01-13T02:06:19.044Z,21.81
2023-01-13T02:08:45.432Z,21.70
2023-01-13T02:11:50.114Z,21.71
2023-01-13T02:14:19.514Z,21.52
2023-01-13T02:17:09.161Z,21.54
2023-01-13T02:19:49.096Z,21.43
2023-01-13T02:22:18.499Z,21.52
2023-01-13T02:24:58.948Z,21.44
2023-01-13T02:27:31.789Z,21.54
2023-01-13T02:30:26.289Z,21.40
2023-01-13T02:33:11.205Z,21.58
2023-01-13T02:35:40.701Z,21.46
2023-01-13T02:38:07.097Z,21.56
2023-01-13T02:40:48.623Z,21.43
2023-01-13T02:43:35.744Z,21.37
2023-01-13T02:46:08.163Z,21.35
2023-01-13T02:48:34.708Z,21.33
2023-01-13T02:51:03.395Z,21.44
2023-01-13T02:53:37.653Z,21.40
2023-01-13T02:56:04.784Z,21.54
2023-01-13T02:58:31.839Z,21.37
2023-01-13T03:00:58.358Z,21.36
2023-01-13T03:03:25.135Z,21.48
2023-01-13T03:05:55.975Z,21.57
2023-01-13T03:08:47.717Z,21.67
2023-01-13T03:11:14.883Z,21.89
2023-01-13T03:13:47.483Z,22.21
2023-01-13T03:16:19.074Z,22.39
2023-01-13T03:18:47.321Z,22.69
2023-01-13T03:21:21.395Z,22.93
2023-01-13T03:23:58.075Z,23.10
2023-01-13T03:26:26.779Z,23.46
2023-01-13T03:28:54.847Z,23.74
2023-01-13T03:31:22.715Z,24.08
2023-01-13T03:33:51.413Z,24.33
2023-01-13T03:36:17.927Z,24.71
2023-01-13T03:38:45.221Z,24.97
2023-01-13T03:41:30.632Z,25.41
2023-01-13T03:44:24.556Z,25.45
2023-01-13T03:47:09.758Z,25.09
2023-01-13T03:49:37.800Z,24.72
2023-01-13T03:52:05.543Z,24.15
2023-01-13T03:54:32.490Z,23.10
2023-01-13T03:56:59.822Z,21.47
2023-01-13T03:59:33.697Z,20.18
2023-01-13T04:02:00.306Z,18.94
2023-01-13T04:04:29.071Z,17.96
2023-01-13T04:07:02.610Z,17.25
2023-01-13T04:09:34.940Z,16.98
2023-01-13T04:12:04.367Z,16.81
2023-01-13T04:14:30.805Z,16.70
2023-01-13T04:16:57.310Z,16.60
2023-01-13T04:19:23.717Z,16.51
2023-01-13T04:21:50.137Z,16.43
2023-01-13T04:24:16.553Z,16.31
2023-01-13T04:26:42.992Z,16.20
2023-01-13T04:29:09.446Z,16.10
2023-01-13T04:31:36.027Z,15.99
2023-01-13T04:34:02.520Z,15.88
2023-01-13T04:36:28.953Z,15.79
2023-01-13T04:38:55.417Z,15.73
2023-01-13T04:41:21.867Z,15.71
2023-01-13T04:43:48.307Z,15.67
2023-01-13T04:46:15.062Z,15.68
2023-01-13T04:48:41.512Z,15.63
2023-01-13T04:51:08.062Z,15.58
2023-01-13T04:53:34.677Z,15.54
2023-01-13T04:56:01.129Z,15.55
2023-01-13T04:58:27.635Z,15.55
2023-01-13T05:00:54.989Z,15.53
2023-01-13T05:03:24.224Z,15.50
2023-01-13T05:05:51.234Z,15.51
2023-01-13T05:08:17.626Z,15.49
2023-01-13T05:10:44.017Z,15.50
2023-01-13T05:13:29.297Z,15.49
2023-01-13T05:16:14.308Z,15.49
2023-01-13T05:18:40.772Z,15.48
2023-01-13T05:21:27.154Z,15.48
2023-01-13T05:24:12.138Z,15.49
2023-01-13T05:26:38.541Z,15.48
2023-01-13T05:29:04.996Z,15.50
2023-01-13T05:31:31.441Z,15.50
2023-01-13T05:33:57.861Z,15.52
2023-01-13T05:36:24.420Z,15.50
2023-01-13T05:38:51.568Z,15.49
2023-01-13T05:41:44.097Z,15.52
2023-01-13T05:44:10.522Z,15.49
2023-01-13T05:46:37.060Z,15.48
2023-01-13T05:49:03.684Z,15.48
2023-01-13T05:51:30.193Z,15.50
2023-01-13T05:53:56.615Z,15.49
2023-01-13T05:56:23.079Z,15.49
2023-01-13T05:58:49.563Z,15.48
2023-01-13T06:01:16.043Z,15.46
2023-01-13T06:03:42.542Z,15.47
2023-01-13T06:06:09.187Z,15.45
2023-01-13T06:08:37.460Z,15.42
2023-01-13T06:11:05.170Z,15.42
2023-01-13T06:13:31.659Z,15.42
2023-01-13T06:15:58.413Z,15.42
2023-01-13T06:18:24.982Z,15.41
2023-01-13T06:20:51.362Z,15.40
2023-01-13T06:23:17.779Z,15.40
2023-01-13T06:25:59.607Z,15.39
2023-01-13T06:28:26.091Z,15.38
2023-01-13T06:30:53.310Z,15.38
2023-01-13T06:33:20.831Z,15.38
2023-01-13T06:35:50.074Z,15.55
2023-01-13T06:38:16.552Z,15.69
2023-01-13T06:40:42.989Z,15.80
2023-01-13T06:43:16.580Z,15.87
2023-01-13T06:45:46.447Z,16.04
2023-01-13T06:48:13.083Z,16.35
2023-01-13T06:50:39.573Z,16.59
2023-01-13T06:53:06.162Z,16.83
2023-01-13T06:55:32.695Z,17.19
2023-01-13T06:57:59.194Z,17.65
2023-01-13T07:00:25.911Z,17.86
2023-01-13T07:02:52.402Z,18.39
2023-01-13T07:05:19.008Z,18.67
2023-01-13T07:07:45.765Z,19.12
2023-01-13T07:10:22.144Z,19.15
2023-01-13T07:13:07.482Z,19.19
2023-01-13T07:15:34.042Z,18.98
2023-01-13T07:18:00.606Z,18.58
2023-01-13T07:20:27.570Z,18.05
2023-01-13T07:22:54.787Z,17.59
2023-01-13T07:25:21.432Z,17.34
2023-01-13T07:27:47.891Z,17.51
2023-01-13T07:30:14.399Z,17.56
2023-01-13T07:32:40.957Z,17.52
2023-01-13T07:35:07.572Z,17.61
2023-01-13T07:37:34.648Z,17.66
2023-01-13T07:40:01.358Z,17.72
2023-01-13T07:42:46.398Z,17.81
2023-01-13T07:45:12.826Z,17.92
2023-01-13T07:47:39.329Z,17.74
2023-01-13T07:50:06.017Z,17.53
2023-01-13T07:52:32.538Z,16.62
2023-01-13T07:54:58.967Z,17.29
2023-01-13T07:57:25.392Z,17.66
2023-01-13T07:59:51.844Z,17.68
2023-01-13T08:02:18.589Z,17.41
2023-01-13T08:04:45.041Z,17.47
2023-01-13T08:07:13.245Z,17.36
2023-01-13T08:09:39.781Z,17.40
2023-01-13T08:12:25.370Z,17.41
2023-01-13T08:14:54.373Z,17.36
2023-01-13T08:17:23.268Z,17.40
2023-01-13T08:19:49.807Z,17.52
2023-01-13T08:22:16.240Z,17.65
2023-01-13T08:24:42.710Z,17.76
2023-01-13T08:27:09.191Z,17.69
2023-01-13T08:29:35.675Z,17.83
2023-01-13T08:32:04.719Z,17.88
2023-01-13T08:34:31.674Z,17.91
2023-01-13T08:36:58.102Z,18.17
2023-01-13T08:39:25.084Z,18.16
2023-01-13T08:41:58.415Z,21.26
2023-01-13T08:44:28.672Z,20.08
2023-01-13T08:46:55.312Z,19.88
2023-01-13T08:49:22.000Z,19.40
2023-01-13T08:51:48.897Z,18.86
2023-01-13T08:54:15.452Z,18.42
2023-01-13T08:56:42.521Z,17.32
2023-01-13T08:59:16.470Z,17.86
2023-01-13T09:01:43.133Z,18.23
2023-01-13T09:04:36.267Z,18.94
2023-01-13T09:07:03.009Z,18.94
2023-01-13T09:09:29.432Z,18.94
2023-01-13T09:12:14.643Z,18.51
2023-01-13T09:14:41.166Z,18.55
2023-01-13T09:17:10.621Z,18.36
2023-01-13T09:19:37.126Z,18.26
2023-01-13T09:22:03.556Z,18.23
2023-01-13T09:24:30.043Z,18.35
2023-01-13T09:26:56.483Z,18.38
2023-01-13T09:29:23.040Z,18.42
2023-01-13T09:31:49.551Z,18.29
2023-01-13T09:34:35.898Z,18.38
2023-01-13T09:37:02.457Z,18.46
2023-01-13T09:39:28.973Z,18.43
2023-01-13T09:42:17.087Z,18.42
2023-01-13T09:44:52.686Z,18.45
2023-01-13T09:47:32.865Z,18.58
2023-01-13T09:50:22.774Z,18.55
2023-01-13T09:52:49.208Z,18.47
2023-01-13T09:55:16.828Z,18.41
2023-01-13T09:57:43.239Z,18.32
2023-01-13T10:00:11.428Z,18.43
2023-01-13T10:02:43.749Z,18.35
2023-01-13T10:05:27.310Z,18.23
2023-01-13T10:07:58.587Z,18.09
2023-01-13T10:10:45.306Z,18.07
2023-01-13T10:13:22.211Z,18.28
2023-01-13T10:16:12.066Z,18.29
2023-01-13T10:18:57.556Z,18.47
2023-01-13T10:21:27.838Z,18.41
2023-01-13T10:24:01.717Z,18.39
2023-01-13T10:26:45.509Z,18.37
2023-01-13T10:29:24.811Z,18.36
2023-01-13T10:31:54.931Z,18.41
2023-01-13T10:34:21.775Z,18.58
2023-01-13T10:36:58.245Z,18.80
2023-01-13T10:39:24.681Z,18.97
2023-01-13T10:42:00.389Z,19.33
2023-01-13T10:44:27.123Z,19.56
2023-01-13T10:46:54.301Z,19.78
2023-01-13T10:49:34.020Z,19.99
2023-01-13T10:52:00.964Z,20.36
2023-01-13T10:54:27.452Z,20.53
2023-01-13T10:57:13.501Z,20.56
2023-01-13T10:59:40.397Z,20.34
2023-01-13T11:02:23.824Z,20.27
2023-01-13T11:05:00.647Z,20.08
2023-01-13T11:07:34.359Z,19.68
2023-01-13T11:10:11.203Z,19.15
2023-01-13T11:12:43.823Z,17.89
2023-01-13T11:15:11.838Z,18.19
2023-01-13T11:17:40.412Z,18.70
2023-01-13T11:20:06.858Z,18.92
2023-01-13T11:22:34.181Z,19.01
2023-01-13T11:25:04.418Z,19.11
2023-01-13T11:27:30.863Z,19.25
2023-01-13T11:30:12.628Z,19.31
2023-01-13T11:32:40.856Z,19.23
2023-01-13T11:35:15.063Z,19.24
2023-01-13T11:37:42.215Z,18.92
2023-01-13T11:40:27.501Z,18.84
2023-01-13T11:42:54.693Z,18.65
2023-01-13T11:45:21.217Z,18.55
2023-01-13T11:47:48.559Z,18.59
2023-01-13T11:50:36.323Z,18.55
2023-01-13T11:53:05.878Z,18.50
2023-01-13T11:55:39.868Z,18.55
2023-01-13T11:58:06.421Z,18.41
2023-01-13T12:00:34.990Z,18.35
2023-01-13T12:03:08.057Z,18.37
2023-01-13T12:05:39.575Z,18.56
2023-01-13T12:08:12.209Z,18.30
2023-01-13T12:10:48.806Z,18.19
2023-01-13T12:13:20.341Z,18.31
2023-01-13T12:16:02.670Z,18.34
2023-01-13T12:18:58.465Z,18.31
2023-01-13T12:21:33.283Z,18.27
2023-01-13T12:24:05.848Z,18.30
2023-01-13T12:26:34.476Z,18.31
2023-01-13T12:29:02.665Z,18.32
2023-01-13T12:31:29.263Z,18.34
2023-01-13T12:33:55.709Z,18.38
2023-01-13T12:36:22.068Z,18.41
2023-01-13T12:38:49.388Z,18.36
2023-01-13T12:41:19.478Z,18.35
2023-01-13T12:44:05.231Z,18.29
2023-01-13T12:46:31.620Z,18.25
2023-01-13T12:49:04.919Z,18.22
2023-01-13T12:51:34.184Z,18.20
2023-01-13T12:54:00.954Z,18.05
2023-01-13T12:56:40.381Z,18.11
2023-01-13T12:59:33.345Z,18.32
2023-01-13T13:02:12.157Z,18.12
2023-01-13T13:04:42.897Z,18.26
2023-01-13T13:07:10.355Z,18.18
2023-01-13T13:09:39.861Z,18.14
2023-01-13T13:12:43.894Z,17.88
2023-01-13T13:15:20.327Z,18.02
2023-01-13T13:18:00.402Z,18.03
2023-01-13T13:20:45.368Z,17.90
2023-01-13T13:23:30.645Z,17.96
2023-01-13T13:26:01.392Z,17.89
2023-01-13T13:28:28.141Z,17.86
2023-01-13T13:31:01.016Z,17.97
2023-01-13T13:33:27.453Z,17.86
2023-01-13T13:35:56.947Z,17.89
2023-01-13T13:39:00.886Z,17.87
2023-01-13T13:41:47.559Z,17.91
2023-01-13T13:44:52.895Z,17.85
2023-01-13T13:47:19.458Z,17.93
2023-01-13T13:49:49.359Z,17.90
2023-01-13T13:52:20.112Z,17.95
2023-01-13T13:54:49.257Z,17.85
2023-01-13T13:57:20.052Z,17.94
2023-01-13T13:59:47.071Z,17.91
2023-01-13T14:02:22.718Z,17.62
2023-01-13T14:04:49.255Z,17.58
2023-01-13T14:07:18.450Z,17.66
2023-01-13T14:09:46.041Z,17.91
2023-01-13T14:12:22.904Z,18.02
2023-01-13T14:14:49.816Z,18.13
2023-01-13T14:17:20.287Z,18.23
2023-01-13T14:19:50.893Z,18.52
2023-01-13T14:22:17.475Z,18.84
2023-01-13T14:24:58.377Z,19.14
2023-01-13T14:27:27.462Z,19.57
2023-01-13T14:29:58.244Z,19.87
2023-01-13T14:32:28.537Z,19.80
2023-01-13T14:34:55.058Z,19.66
2023-01-13T14:37:25.607Z,19.55
2023-01-13T14:39:53.980Z,19.07
2023-01-13T14:42:21.656Z,18.53
2023-01-13T14:44:49.215Z,17.70
2023-01-13T14:47:20.225Z,17.16
2023-01-13T14:50:04.818Z,17.06
2023-01-13T14:52:32.647Z,17.08
2023-01-13T14:54:59.160Z,17.05
2023-01-13T14:57:27.391Z,17.05
2023-01-13T14:59:59.247Z,17.05
2023-01-13T15:02:25.777Z,17.05
2023-01-13T15:04:58.683Z,17.05
2023-01-13T15:07:26.011Z,17.09
2023-01-13T15:09:56.011Z,17.08
2023-01-13T15:12:23.793Z,17.08
2023-01-13T15:14:52.676Z,17.08
2023-01-13T15:17:19.216Z,17.05
2023-01-13T15:19:47.499Z,17.05
2023-01-13T15:22:13.993Z,17.03
2023-01-13T15:24:40.530Z,17.03
2023-01-13T15:27:14.063Z,17.00
2023-01-13T15:29:43.074Z,16.97
2023-01-13T15:32:22.575Z,16.97
2023-01-13T15:34:51.866Z,16.96
2023-01-13T15:37:19.556Z,16.91
2023-01-13T15:39:48.213Z,16.88
2023-01-13T15:42:33.440Z,16.88
2023-01-13T15:45:18.291Z,16.86
2023-01-13T15:47:44.932Z,16.84
2023-01-13T15:50:15.140Z,16.80
2023-01-13T15:52:41.799Z,16.80
2023-01-13T15:55:08.390Z,16.79
2023-01-13T15:57:38.427Z,16.78
2023-01-13T16:00:15.593Z,16.75
2023-01-13T16:02:42.194Z,16.74
2023-01-13T16:05:08.808Z,16.74
2023-01-13T16:07:35.353Z,16.73
2023-01-13T16:10:03.584Z,16.72
2023-01-13T16:12:30.124Z,16.71
2023-01-13T16:14:56.553Z,16.72
2023-01-13T16:17:23.715Z,16.72
2023-01-13T16:19:50.251Z,16.72
2023-01-13T16:22:16.689Z,16.73
2023-01-13T16:24:43.586Z,16.75
2023-01-13T16:27:14.415Z,16.75
2023-01-13T16:29:41.159Z,16.77
2023-01-13T16:32:07.697Z,16.79
2023-01-13T16:34:34.223Z,16.80
2023-01-13T16:37:00.760Z,16.80
2023-01-13T16:39:27.262Z,16.79
2023-01-13T16:41:53.801Z,16.85
2023-01-13T16:44:20.291Z,16.85
2023-01-13T16:46:47.687Z,16.87
2023-01-13T16:49:14.468Z,16.86
2023-01-13T16:51:40.879Z,16.87
2023-01-13T16:54:07.327Z,16.85
2023-01-13T16:56:34.443Z,16.88
2023-01-13T16:59:04.438Z,16.86
2023-01-13T17:01:31.562Z,16.86
2023-01-13T17:03:58.141Z,16.85
2023-01-13T17:06:25.672Z,16.81
2023-01-13T17:08:53.299Z,16.81
2023-01-13T17:11:19.936Z,16.83
2023-01-13T17:13:46.569Z,16.84
2023-01-13T17:16:15.247Z,16.81
2023-01-13T17:18:41.794Z,16.83
2023-01-13T17:21:08.320Z,16.79
2023-01-13T17:23:34.686Z,16.79
2023-01-13T17:26:01.117Z,16.78
2023-01-13T17:28:27.718Z,16.79
2023-01-13T17:30:54.176Z,16.79
2023-01-13T17:33:20.566Z,16.79
2023-01-13T17:35:47.137Z,16.79
2023-01-13T17:38:13.638Z,16.78
2023-01-13T17:40:40.130Z,16.78
2023-01-13T17:43:06.537Z,16.78
2023-01-13T17:45:33.028Z,16.84
2023-01-13T17:47:59.687Z,16.94
2023-01-13T17:50:27.740Z,17.14
2023-01-13T17:52:54.367Z,17.37
2023-01-13T17:55:20.822Z,17.62
2023-01-13T17:57:47.245Z,17.86
2023-01-13T18:00:13.914Z,18.04
2023-01-13T18:02:40.377Z,18.23
2023-01-13T18:05:06.900Z,18.69
2023-01-13T18:07:33.314Z,19.05
2023-01-13T18:09:59.740Z,19.50
2023-01-13T18:12:26.158Z,19.76
2023-01-13T18:14:52.556Z,19.74
2023-01-13T18:17:20.160Z,19.74
2023-01-13T18:20:05.578Z,19.47
2023-01-13T18:22:50.596Z,19.06
2023-01-13T18:25:35.850Z,18.18
2023-01-13T18:28:02.930Z,17.37
2023-01-13T18:30:29.368Z,17.13
2023-01-13T18:32:56.234Z,17.16
2023-01-13T18:35:22.686Z,17.20
2023-01-13T18:37:49.088Z,17.21
2023-01-13T18:40:17.826Z,17.23
2023-01-13T18:42:56.074Z,17.25
2023-01-13T18:45:26.471Z,17.23
2023-01-13T18:47:53.416Z,17.27
2023-01-13T18:50:19.946Z,17.29
2023-01-13T18:52:46.423Z,17.30
2023-01-13T18:55:13.024Z,17.27
2023-01-13T18:57:42.160Z,17.29
2023-01-13T19:00:09.648Z,17.27
2023-01-13T19:02:36.170Z,17.25
2023-01-13T19:05:02.648Z,17.24
2023-01-13T19:07:29.627Z,17.23
2023-01-13T19:09:56.211Z,17.20
2023-01-13T19:12:30.914Z,17.16
2023-01-13T19:14:57.638Z,17.15
2023-01-13T19:17:24.617Z,17.15
2023-01-13T19:19:52.823Z,17.14
2023-01-13T19:22:23.410Z,17.09
2023-01-13T19:24:50.097Z,17.09
2023-01-13T19:27:16.889Z,17.06
2023-01-13T19:29:51.886Z,17.03
2023-01-13T19:32:19.111Z,17.01
2023-01-13T19:34:46.802Z,16.98
2023-01-13T19:37:13.279Z,16.98
2023-01-13T19:39:39.702Z,16.96
2023-01-13T19:42:24.927Z,16.92
2023-01-13T19:45:10.100Z,16.92
2023-01-13T19:47:38.521Z,16.89
2023-01-13T19:50:06.630Z,16.86
2023-01-13T19:52:33.122Z,16.87
2023-01-13T19:54:59.682Z,16.85
2023-01-13T19:57:26.214Z,16.85
2023-01-13T19:59:52.604Z,16.85
2023-01-13T20:02:28.825Z,17.00
2023-01-13T20:04:56.072Z,17.34
2023-01-13T20:07:23.672Z,17.79
2023-01-13T20:09:50.482Z,18.25
2023-01-13T20:12:17.067Z,18.69
2023-01-13T20:14:43.709Z,19.03
2023-01-13T20:17:11.818Z,19.50
2023-01-13T20:19:38.276Z,20.14
2023-01-13T20:22:04.882Z,20.64
2023-01-13T20:24:31.279Z,21.03
2023-01-13T20:26:57.815Z,21.35
2023-01-13T20:29:24.269Z,21.40
2023-01-13T20:31:50.752Z,21.51
2023-01-13T20:34:20.119Z,21.55
2023-01-13T20:36:47.070Z,21.48
2023-01-13T20:39:17.802Z,21.50
2023-01-13T20:42:02.961Z,21.36
2023-01-13T20:44:29.487Z,21.27
2023-01-13T20:46:57.735Z,21.16
2023-01-13T20:49:24.384Z,21.12
2023-01-13T20:51:50.775Z,21.03
2023-01-13T20:54:17.473Z,21.00
2023-01-13T20:56:43.915Z,20.91
2023-01-13T20:59:10.403Z,20.87
2023-01-13T21:01:37.005Z,20.85
2023-01-13T21:04:04.402Z,20.90
2023-01-13T21:06:30.840Z,20.87
2023-01-13T21:08:57.317Z,20.95
2023-01-13T21:11:43.031Z,20.91
2023-01-13T21:14:32.472Z,20.98
2023-01-13T21:16:58.859Z,20.93
2023-01-13T21:19:25.291Z,20.96
2023-01-13T21:21:51.706Z,20.93
2023-01-13T21:24:18.378Z,20.97
2023-01-13T21:26:44.893Z,20.89
2023-01-13T21:29:11.379Z,20.93
2023-01-13T21:31:37.863Z,20.92
2023-01-13T21:34:05.136Z,20.93
2023-01-13T21:36:31.608Z,20.96
2023-01-13T21:38:58.444Z,21.01
2023-01-13T21:41:44.176Z,20.94
2023-01-13T21:44:35.918Z,21.03
2023-01-13T21:47:34.892Z,21.04
2023-01-13T21:50:01.445Z,20.98
2023-01-13T21:52:28.078Z,20.91
2023-01-13T21:55:13.073Z,21.04
2023-01-13T21:57:39.483Z,21.04
2023-01-13T22:00:06.247Z,21.04
2023-01-13T22:02:33.052Z,21.10
2023-01-13T22:04:59.893Z,21.07
2023-01-13T22:07:27.656Z,21.11
2023-01-13T22:09:54.393Z,21.10
2023-01-13T22:12:24.690Z,21.17
2023-01-13T22:14:54.050Z,21.20
2023-01-13T22:17:23.853Z,21.25
2023-01-13T22:19:51.335Z,21.25
2023-01-13T22:22:18.860Z,21.29
2023-01-13T22:24:46.443Z,21.25
2023-01-13T22:27:13.634Z,21.34
2023-01-13T22:29:42.546Z,21.33
2023-01-13T22:32:11.725Z,21.34
2023-01-13T22:34:38.129Z,21.29
2023-01-13T22:37:04.656Z,21.28
2023-01-13T22:39:31.108Z,21.25
2023-01-13T22:41:57.526Z,21.37
2023-01-13T22:44:26.440Z,21.36
2023-01-13T22:46:53.013Z,21.33
2023-01-13T22:49:19.512Z,21.34
2023-01-13T22:51:46.162Z,21.33
2023-01-13T22:54:12.691Z,21.32
2023-01-13T22:56:39.181Z,21.36
2023-01-13T22:59:09.815Z,21.35
2023-01-13T23:01:38.359Z,21.30
2023-01-13T23:04:07.385Z,21.32
2023-01-13T23:06:36.221Z,21.33
2023-01-13T23:09:05.195Z,21.33
2023-01-13T23:11:31.703Z,21.22
2023-01-13T23:13:59.569Z,21.31
2023-01-13T23:16:26.158Z,21.23
2023-01-13T23:18:52.554Z,21.33
2023-01-13T23:21:20.027Z,21.32
2023-01-13T23:23:46.499Z,21.34
2023-01-13T23:26:12.969Z,21.29
2023-01-13T23:28:39.426Z,21.24
2023-01-13T23:31:06.819Z,21.29
2023-01-13T23:33:33.332Z,21.34
2023-01-13T23:36:03.458Z,21.39
2023-01-13T23:38:29.920Z,21.55
2023-01-13T23:40:56.481Z,21.45
2023-01-13T23:43:23.189Z,21.53
2023-01-13T23:45:49.912Z,21.42
2023-01-13T23:48:16.859Z,21.53
2023-01-13T23:50:56.027Z,21.41
2023-01-13T23:53:22.592Z,21.48
2023-01-13T23:55:51.140Z,21.42
2023-01-13T23:58:17.709Z,21.50
